Time;durP1;ratioP1;P1;durP2;ratioP2;P2;SDS_P1;SDS_P2;PMS_P1;PMS_P2;Temp;Humidity;BMP_temperature;BMP_pressure;BME280_temperature;BME280_humidity;BME280_pressure;Samples;Min_cycle;Max_cycle;Signal;HPM_P1;HPM_P2
2022/05/23 00:00:24;;;;;;;3.77;2.10;;;21.40;64.40;;;;;;4989545;28;20497;-79
2022/05/23 00:02:50;;;;;;;3.20;1.90;;;21.40;64.60;;;;;;4996367;28;20029;-79
2022/05/23 00:05:16;;;;;;;2.30;1.90;;;21.30;64.70;;;;;;5012474;28;20267;-79
2022/05/23 00:07:44;;;;;;;2.80;2.10;;;21.20;64.70;;;;;;5005005;28;20029;-79
2022/05/23 00:10:12;;;;;;;2.78;2.03;;;21.20;64.70;;;;;;5018360;28;20040;-79
2022/05/23 00:12:39;;;;;;;4.03;2.08;;;21.10;64.90;;;;;;5002972;28;20496;-79
2022/05/23 00:15:07;;;;;;;2.97;2.05;;;21.00;65.00;;;;;;4983919;28;20098;-79
2022/05/23 00:17:33;;;;;;;3.40;2.00;;;20.90;64.90;;;;;;5029926;28;20037;-79
2022/05/23 00:19:58;;;;;;;2.70;1.95;;;20.90;64.90;;;;;;5012149;28;20048;-79
2022/05/23 00:22:24;;;;;;;3.40;1.93;;;20.80;65.00;;;;;;4975536;28;20119;-79
2022/05/23 00:24:50;;;;;;;2.63;2.10;;;20.70;65.20;;;;;;5014429;28;20033;-79
2022/05/23 00:27:21;;;;;;;2.73;1.97;;;20.70;65.40;;;;;;4993865;28;20378;-79
2022/05/23 00:29:46;;;;;;;3.65;2.30;;;20.60;65.40;;;;;;5007157;28;20420;-79
2022/05/23 00:37:41;;;;;;;3.65;2.40;;;20.30;65.50;;;;;;5005111;28;20029;-79
2022/05/23 00:40:14;;;;;;;3.05;2.30;;;20.30;65.80;;;;;;4998187;28;20025;-79
2022/05/23 00:45:25;;;;;;;3.10;2.15;;;20.10;66.10;;;;;;5021012;28;20034;-79
2022/05/23 00:47:53;;;;;;;3.78;2.40;;;20.10;66.30;;;;;;5006640;28;20931;-79
2022/05/23 00:50:19;;;;;;;3.75;2.17;;;20.00;66.50;;;;;;5028644;28;20471;-79
2022/05/23 00:52:50;;;;;;;4.03;2.47;;;20.00;66.80;;;;;;4989034;28;20029;-79
2022/05/23 00:55:26;;;;;;;3.50;2.30;;;19.90;67.10;;;;;;5001678;28;20030;-79
2022/05/23 00:57:57;;;;;;;4.20;2.50;;;19.90;67.30;;;;;;5003210;28;20032;-79
2022/05/23 01:00:23;;;;;;;4.15;2.17;;;19.90;67.50;;;;;;4993099;28;20055;-80
2022/05/23 01:02:55;;;;;;;3.97;2.30;;;19.90;67.60;;;;;;4988957;28;20060;-81
2022/05/23 01:05:21;;;;;;;3.78;2.53;;;19.90;67.70;;;;;;4979968;28;20026;-81
2022/05/23 01:07:47;;;;;;;3.87;2.43;;;19.90;67.60;;;;;;4993597;28;20044;-81
2022/05/23 01:10:13;;;;;;;3.67;2.63;;;19.90;67.50;;;;;;4967000;28;20037;-81
2022/05/23 01:12:40;;;;;;;3.83;2.60;;;19.90;67.60;;;;;;5011136;28;20045;-81
2022/05/23 01:15:20;;;;;;;4.13;2.63;;;19.90;67.60;;;;;;5007362;28;20768;-81
2022/05/23 01:17:46;;;;;;;3.70;2.42;;;19.90;67.90;;;;;;5008124;28;20486;-81
2022/05/23 01:20:12;;;;;;;4.10;2.50;;;19.90;67.90;;;;;;4980269;28;20042;-81
2022/05/23 01:23:04;;;;;;;4.03;2.58;;;19.90;68.10;;;;;;4985903;28;20033;-82
2022/05/23 01:25:30;;;;;;;3.35;2.50;;;19.90;68.60;;;;;;4958424;28;20533;-82
2022/05/23 01:27:56;;;;;;;4.40;2.50;;;19.90;68.40;;;;;;5020708;28;20480;-81
2022/05/23 01:30:22;;;;;;;3.80;2.40;;;19.90;68.50;;;;;;4978478;28;20331;-81
2022/05/23 01:32:47;;;;;;;3.67;2.47;;;19.90;68.70;;;;;;5024379;28;20488;-81
2022/05/23 01:35:13;;;;;;;4.47;2.90;;;19.90;68.90;;;;;;4990669;28;20038;-81
2022/05/23 01:37:39;;;;;;;3.63;2.67;;;19.80;69.00;;;;;;5006171;28;20383;-81
2022/05/23 01:40:09;;;;;;;2.95;2.47;;;19.90;69.00;;;;;;5010887;28;20535;-81
2022/05/23 01:42:34;;;;;;;4.25;2.67;;;19.80;69.20;;;;;;5015025;28;20442;-81
2022/05/23 01:45:01;;;;;;;3.77;2.67;;;19.90;69.10;;;;;;5014829;28;20029;-81
2022/05/23 01:47:26;;;;;;;4.78;2.75;;;19.90;69.20;;;;;;5009507;28;20136;-81
2022/05/23 01:49:52;;;;;;;4.50;2.88;;;19.80;69.20;;;;;;5021916;28;20537;-81
2022/05/23 01:52:17;;;;;;;4.80;2.90;;;19.90;69.20;;;;;;5010136;28;20702;-81
2022/05/23 01:54:43;;;;;;;4.83;2.83;;;19.90;69.20;;;;;;5014262;28;20042;-81
2022/05/23 01:57:11;;;;;;;3.53;2.83;;;19.80;69.10;;;;;;4976057;28;20429;-81
2022/05/23 02:02:22;;;;;;;3.63;2.78;;;19.80;69.20;;;;;;5014899;28;20037;-81
2022/05/23 02:04:47;;;;;;;3.90;2.80;;;19.80;69.10;;;;;;5012011;28;20025;-81
2022/05/23 02:07:14;;;;;;;5.57;2.83;;;19.80;69.30;;;;;;5009681;28;20470;-81
2022/05/23 02:09:40;;;;;;;4.20;2.58;;;19.80;69.50;;;;;;5021126;28;20295;-81
2022/05/23 02:12:07;;;;;;;4.13;2.70;;;19.70;69.50;;;;;;4989833;28;20029;-81
2022/05/23 02:14:33;;;;;;;4.20;2.60;;;19.70;69.60;;;;;;5003014;28;20723;-81
2022/05/23 02:16:59;;;;;;;3.88;2.97;;;19.70;69.60;;;;;;5013704;28;20067;-81
2022/05/23 02:19:24;;;;;;;3.60;2.90;;;19.70;69.70;;;;;;5029907;28;20242;-81
2022/05/23 02:21:50;;;;;;;4.13;3.13;;;19.60;69.70;;;;;;5007129;28;20029;-81
2022/05/23 02:24:16;;;;;;;4.73;3.23;;;19.60;69.80;;;;;;5008858;28;20241;-82
2022/05/23 02:26:42;;;;;;;5.80;3.15;;;19.60;69.80;;;;;;4970201;28;20394;-81
2022/05/23 02:29:08;;;;;;;4.75;3.22;;;19.60;69.80;;;;;;4991028;28;20026;-81
2022/05/23 02:31:34;;;;;;;3.70;3.00;;;19.60;69.80;;;;;;5003631;28;20568;-82
2022/05/23 02:34:01;;;;;;;4.90;2.90;;;19.60;70.00;;;;;;5002582;28;20108;-81
2022/05/23 02:36:27;;;;;;;5.05;2.88;;;19.60;70.10;;;;;;4988754;28;21071;-82
2022/05/23 02:38:53;;;;;;;4.40;3.15;;;19.50;70.00;;;;;;4999186;28;20041;-81
2022/05/23 02:41:19;;;;;;;4.03;3.07;;;19.50;70.10;;;;;;5004195;28;20026;-81
2022/05/23 02:43:44;;;;;;;4.43;3.17;;;19.50;70.10;;;;;;4996266;28;20387;-81
2022/05/23 02:46:10;;;;;;;4.27;3.00;;;19.50;70.20;;;;;;5013483;28;20030;-81
2022/05/23 02:48:35;;;;;;;5.13;3.05;;;19.50;70.30;;;;;;5014716;28;20057;-81
2022/05/23 02:51:01;;;;;;;5.10;3.43;;;19.40;70.20;;;;;;5012276;28;20034;-81
2022/05/23 02:53:27;;;;;;;5.45;3.47;;;19.40;70.20;;;;;;5028373;28;20029;-81
2022/05/23 02:55:52;;;;;;;6.50;3.40;;;19.30;70.10;;;;;;5013753;28;20457;-81
2022/05/23 02:58:18;;;;;;;5.70;3.70;;;19.30;70.10;;;;;;5010682;28;20142;-82
2022/05/23 03:00:44;;;;;;;4.63;3.20;;;19.20;70.00;;;;;;5014341;28;20036;-81
2022/05/23 03:03:10;;;;;;;4.95;3.35;;;19.20;70.10;;;;;;4991756;28;20033;-81
2022/05/23 03:05:44;;;;;;;5.47;3.50;;;19.10;70.00;;;;;;5021743;28;20073;-81
2022/05/23 03:08:12;;;;;;;4.93;3.30;;;19.10;71.00;;;;;;4987712;28;20032;-81
2022/05/23 03:10:38;;;;;;;4.30;3.20;;;19.00;70.30;;;;;;5001557;28;20034;-82
2022/05/23 03:13:05;;;;;;;4.53;3.40;;;19.00;70.40;;;;;;4974452;28;20474;-81
2022/05/23 03:15:30;;;;;;;5.00;3.33;;;18.90;70.40;;;;;;5010727;28;20049;-81
2022/05/23 03:17:57;;;;;;;5.13;3.40;;;18.90;70.50;;;;;;5014371;28;20037;-81
2022/05/23 03:20:23;;;;;;;4.97;3.22;;;18.80;70.50;;;;;;5005847;28;20029;-81
2022/05/23 03:28:17;;;;;;;4.53;3.17;;;18.70;70.70;;;;;;5010706;28;20033;-81
2022/05/23 03:30:44;;;;;;;4.40;3.50;;;18.60;70.70;;;;;;5000360;28;20052;-81
2022/05/23 03:33:11;;;;;;;5.75;3.47;;;18.60;70.80;;;;;;4995973;28;20025;-81
2022/05/23 03:35:37;;;;;;;5.18;3.47;;;18.50;70.90;;;;;;4996918;28;20052;-81
2022/05/23 03:38:03;;;;;;;6.37;3.40;;;18.50;71.70;;;;;;5013168;28;20410;-81
2022/05/23 03:40:29;;;;;;;4.80;3.50;;;18.40;71.00;;;;;;4993210;28;20045;-81
2022/05/23 03:42:56;;;;;;;4.70;3.37;;;18.30;71.10;;;;;;5005165;28;20298;-81
2022/05/23 03:45:24;;;;;;;4.70;3.28;;;18.30;71.20;;;;;;5000634;28;20048;-82
2022/05/23 03:47:51;;;;;;;6.18;3.53;;;18.20;71.30;;;;;;4985563;28;20414;-81
2022/05/23 03:50:17;;;;;;;4.47;3.10;;;18.20;71.30;;;;;;5012285;28;20482;-81
2022/05/23 03:52:44;;;;;;;4.45;3.35;;;18.20;71.40;;;;;;4998680;28;20113;-81
2022/05/23 03:55:09;;;;;;;4.60;3.30;;;18.10;71.60;;;;;;4991612;28;20759;-81
2022/05/23 03:57:35;;;;;;;4.50;3.50;;;18.10;71.80;;;;;;4979537;28;20055;-81
2022/05/23 04:00:02;;;;;;;4.40;3.20;;;18.10;71.90;;;;;;5008407;28;20367;-81
2022/05/23 04:02:27;;;;;;;4.75;3.35;;;18.10;72.00;;;;;;5009554;28;20117;-82
2022/05/23 04:04:53;;;;;;;4.27;3.17;;;18.10;72.10;;;;;;5015215;28;20121;-81
2022/05/23 04:07:19;;;;;;;4.50;3.13;;;18.00;72.20;;;;;;5017470;28;20038;-81
2022/05/23 04:09:44;;;;;;;5.47;3.57;;;18.00;72.30;;;;;;4977195;28;20535;-81
2022/05/23 04:12:10;;;;;;;4.73;3.17;;;18.00;72.40;;;;;;5019236;28;20398;-81
2022/05/23 04:14:36;;;;;;;4.05;3.15;;;18.00;72.60;;;;;;4978112;28;20053;-81
2022/05/23 04:17:02;;;;;;;4.68;3.63;;;18.00;72.60;;;;;;5003078;28;20036;-81
2022/05/23 04:19:28;;;;;;;5.10;3.72;;;18.00;72.70;;;;;;5013285;28;20100;-81
2022/05/23 04:21:54;;;;;;;6.53;3.37;;;18.00;72.80;;;;;;5015672;28;20194;-81
2022/05/23 04:24:20;;;;;;;5.20;3.60;;;18.00;72.90;;;;;;5018378;28;20041;-81
2022/05/23 04:26:53;;;;;;;5.57;3.30;;;18.00;72.90;;;;;;5003487;28;20349;-82
2022/05/23 04:29:19;;;;;;;4.78;3.35;;;18.00;73.10;;;;;;5016236;28;20041;-81
2022/05/23 04:31:44;;;;;;;5.57;3.72;;;18.00;72.90;;;;;;4984308;28;20208;-81
2022/05/23 04:36:54;;;;;;;5.18;3.70;;;18.10;73.20;;;;;;5011748;28;20136;-81
2022/05/23 04:39:19;;;;;;;6.40;3.63;;;18.10;73.20;;;;;;5026963;28;20153;-81
2022/05/23 04:41:45;;;;;;;4.90;3.55;;;18.10;73.40;;;;;;4985441;28;20605;-81
2022/05/23 04:44:11;;;;;;;5.90;3.90;;;18.10;73.40;;;;;;4987841;28;20041;-81
2022/05/23 04:49:39;;;;;;;7.25;3.95;;;18.10;73.50;;;;;;4989080;28;20524;-80
2022/05/23 04:52:10;;;;;;;6.40;3.80;;;18.10;73.70;;;;;;5013745;28;20510;-81
2022/05/23 04:54:37;;;;;;;5.35;3.63;;;18.10;73.80;;;;;;5002771;28;20041;-81
2022/05/23 04:57:03;;;;;;;6.20;3.90;;;18.10;73.90;;;;;;4991407;28;20153;-81
2022/05/23 04:59:29;;;;;;;5.38;3.60;;;18.20;74.20;;;;;;4987442;28;21388;-81
2022/05/23 05:01:54;;;;;;;5.73;3.80;;;18.20;74.30;;;;;;4986465;28;20033;-81
2022/05/23 05:04:20;;;;;;;4.90;3.95;;;18.20;74.40;;;;;;4986954;28;20045;-81
2022/05/23 05:06:46;;;;;;;4.73;3.70;;;18.30;74.60;;;;;;4973657;28;20030;-82
2022/05/23 05:09:11;;;;;;;5.20;4.00;;;18.40;74.60;;;;;;5000314;28;20045;-82
2022/05/23 05:11:37;;;;;;;5.03;3.63;;;18.40;74.80;;;;;;5001872;28;20041;-81
2022/05/23 05:14:05;;;;;;;5.57;3.90;;;18.50;74.90;;;;;;4999022;28;20060;-81
2022/05/23 05:16:31;;;;;;;5.38;3.63;;;18.60;74.90;;;;;;4998734;28;20044;-81
2022/05/23 05:18:58;;;;;;;5.57;3.20;;;18.60;74.90;;;;;;4970991;28;20069;-81
2022/05/23 05:21:24;;;;;;;5.60;3.88;;;18.70;75.00;;;;;;4975885;28;20580;-81
2022/05/23 05:23:50;;;;;;;5.47;3.88;;;18.80;75.00;;;;;;4982968;28;20038;-81
2022/05/23 05:26:16;;;;;;;5.72;3.60;;;18.80;75.10;;;;;;5002397;28;20436;-81
2022/05/23 05:28:41;;;;;;;6.53;3.90;;;18.90;75.10;;;;;;4980869;28;20070;-81
2022/05/23 05:31:14;;;;;;;6.22;4.20;;;19.00;75.20;;;;;;4989407;28;20052;-81
2022/05/23 05:33:46;;;;;;;6.63;4.13;;;19.00;75.20;;;;;;4988201;28;20516;-81
2022/05/23 05:36:18;;;;;;;6.30;4.03;;;19.10;75.20;;;;;;4996122;28;20124;-81
2022/05/23 05:38:52;;;;;;;6.13;3.85;;;19.20;75.90;;;;;;4997595;28;20394;-81
2022/05/23 05:41:22;;;;;;;4.40;3.63;;;19.20;75.20;;;;;;4993586;28;20223;-81
2022/05/23 05:43:55;;;;;;;6.13;3.78;;;19.30;75.10;;;;;;4997163;28;20033;-81
2022/05/23 05:46:44;;;;;;;5.83;3.63;;;19.30;74.90;;;;;;4982556;28;20320;-81
2022/05/23 05:49:16;;;;;;;5.68;3.78;;;19.40;74.90;;;;;;5004321;28;20064;-81
2022/05/23 05:51:42;;;;;;;5.53;3.60;;;19.40;74.70;;;;;;5020829;28;20069;-81
2022/05/23 05:54:12;;;;;;;5.45;3.90;;;19.40;74.70;;;;;;5013691;28;20501;-81
2022/05/23 05:56:39;;;;;;;5.38;4.00;;;19.50;74.70;;;;;;5038680;28;20045;-81
2022/05/23 05:59:06;;;;;;;5.90;3.70;;;19.50;74.70;;;;;;4992998;28;20044;-81
2022/05/23 06:01:32;;;;;;;5.00;3.50;;;19.60;74.90;;;;;;4974541;28;20129;-81
2022/05/23 06:03:57;;;;;;;7.55;3.88;;;19.60;74.80;;;;;;4991851;28;20063;-81
2022/05/23 06:11:51;;;;;;;4.72;3.65;;;19.70;74.80;;;;;;5003767;28;20037;-81
2022/05/23 06:14:17;;;;;;;4.70;3.47;;;19.70;74.70;;;;;;4993375;28;20368;-81
2022/05/23 06:16:43;;;;;;;5.43;3.70;;;19.80;74.70;;;;;;4984291;28;20662;-81
2022/05/23 06:19:08;;;;;;;5.00;3.60;;;19.80;74.70;;;;;;4998548;28;20120;-82
2022/05/23 06:21:34;;;;;;;4.00;3.10;;;19.80;75.50;;;;;;4976532;28;20053;-81
2022/05/23 06:23:59;;;;;;;4.40;3.53;;;19.90;74.60;;;;;;4983264;28;20255;-81
2022/05/23 06:26:26;;;;;;;5.30;3.80;;;19.90;74.60;;;;;;4985553;28;20036;-81
2022/05/23 06:28:52;;;;;;;5.55;3.35;;;19.90;74.50;;;;;;5018249;28;20274;-82
2022/05/23 06:31:19;;;;;;;4.93;3.42;;;19.90;74.40;;;;;;4999140;28;20045;-81
2022/05/23 06:33:45;;;;;;;4.80;3.33;;;19.80;74.50;;;;;;4999689;28;20351;-82
2022/05/23 06:36:12;;;;;;;4.30;3.30;;;19.80;74.80;;;;;;4981900;28;20499;-81
2022/05/23 06:38:39;;;;;;;5.75;3.50;;;19.80;74.90;;;;;;4977836;28;20552;-81
2022/05/23 06:41:07;;;;;;;6.57;3.65;;;19.80;75.00;;;;;;4981707;28;20065;-81
2022/05/23 06:43:33;;;;;;;3.70;3.20;;;19.90;75.40;;;;;;5011602;28;20030;-81
2022/05/23 06:45:59;;;;;;;5.00;3.23;;;19.90;75.60;;;;;;5000988;28;20037;-81
2022/05/23 06:48:26;;;;;;;4.68;3.33;;;20.00;75.70;;;;;;5019886;28;20041;-81
2022/05/23 06:50:52;;;;;;;4.97;3.03;;;20.00;75.60;;;;;;4989411;28;20529;-81
2022/05/23 06:53:19;;;;;;;5.33;3.47;;;20.10;75.60;;;;;;4992838;28;20104;-81
2022/05/23 06:55:45;;;;;;;5.45;3.40;;;20.10;75.40;;;;;;5015799;28;20041;-81
2022/05/23 06:58:11;;;;;;;7.53;3.60;;;20.20;75.30;;;;;;4977398;28;20038;-81
2022/05/23 07:00:37;;;;;;;4.70;3.30;;;20.20;75.40;;;;;;5010688;28;20105;-81
2022/05/23 07:03:04;;;;;;;3.97;3.30;;;20.20;75.40;;;;;;4997443;28;20326;-81
2022/05/23 07:13:44;;;;;;;4.68;3.13;;;20.50;75.50;;;;;;4997451;28;20120;-82
2022/05/23 07:16:10;;;;;;;4.17;3.07;;;20.50;75.50;;;;;;4999804;28;20041;-81
2022/05/23 07:18:38;;;;;;;5.22;3.03;;;20.50;75.60;;;;;;4998153;28;20681;-81
2022/05/23 07:21:07;;;;;;;5.18;3.55;;;20.60;75.70;;;;;;5009609;28;20037;-82
2022/05/23 07:23:34;;;;;;;6.10;3.43;;;20.60;75.70;;;;;;4976194;28;20021;-81
2022/05/23 07:26:00;;;;;;;4.00;3.28;;;20.70;75.70;;;;;;5016430;28;20033;-82
2022/05/23 07:28:25;;;;;;;4.80;3.30;;;20.70;75.70;;;;;;4977818;28;20030;-81
2022/05/23 07:30:51;;;;;;;4.40;3.33;;;20.70;75.50;;;;;;5000026;28;20641;-81
2022/05/23 07:33:17;;;;;;;4.50;3.20;;;20.70;76.50;;;;;;5003015;28;20099;-81
2022/05/23 07:35:42;;;;;;;5.30;3.37;;;20.70;75.80;;;;;;5000304;28;20133;-81
2022/05/23 07:38:09;;;;;;;4.03;3.10;;;20.70;75.90;;;;;;4978357;28;20439;-81
2022/05/23 07:40:34;;;;;;;6.05;3.38;;;20.80;76.00;;;;;;5014329;28;20061;-81
2022/05/23 07:43:00;;;;;;;3.97;3.00;;;20.80;76.20;;;;;;5002537;28;20632;-81
2022/05/23 07:45:26;;;;;;;4.50;3.10;;;20.80;76.10;;;;;;5012475;28;20030;-81
2022/05/23 07:47:52;;;;;;;3.97;3.07;;;20.90;76.10;;;;;;4991186;28;20282;-81
2022/05/23 07:50:19;;;;;;;5.60;3.33;;;20.90;76.20;;;;;;5021848;28;20036;-81
2022/05/23 08:00:31;;;;;;;3.63;3.08;;;21.00;76.50;;;;;;4986779;28;20316;-81
2022/05/23 08:00:59;;;;;;;4.43;3.10;;;21.30;77.50;;;;;;4983099;28;20045;-82
2022/05/23 08:03:24;;;;;;;4.32;2.90;;;21.40;77.60;;;;;;4978963;28;20077;-83
2022/05/23 08:05:50;;;;;;;4.47;3.30;;;21.60;77.60;;;;;;4961117;28;20572;-81
2022/05/23 08:08:16;;;;;;;4.88;3.20;;;21.70;77.60;;;;;;4999909;28;20034;-81
2022/05/23 08:10:41;;;;;;;3.70;2.90;;;21.80;77.70;;;;;;4973242;28;20273;-82
2022/05/23 08:13:09;;;;;;;3.85;2.75;;;22.00;77.80;;;;;;5006036;28;20031;-83
2022/05/23 08:15:40;;;;;;;4.30;2.43;;;22.20;78.00;;;;;;4981035;28;20477;-82
2022/05/23 08:18:09;;;;;;;4.03;2.75;;;22.40;78.90;;;;;;4991464;28;20036;-82
2022/05/23 08:20:38;;;;;;;2.90;2.35;;;22.70;79.00;;;;;;4969006;28;20092;-82
2022/05/23 08:23:04;;;;;;;3.92;2.47;;;23.00;79.50;;;;;;4985136;28;20038;-82
2022/05/23 08:25:30;;;;;;;3.20;2.30;;;23.30;79.90;;;;;;4961203;28;20026;-82
2022/05/23 08:27:56;;;;;;;3.80;2.27;;;23.60;79.20;;;;;;4989670;28;20041;-82
2022/05/23 08:30:22;;;;;;;3.38;2.40;;;24.00;78.60;;;;;;4996917;28;20042;-83
2022/05/23 08:32:49;;;;;;;3.03;2.30;;;24.20;77.30;;;;;;4976134;28;20228;-82
2022/05/23 08:35:16;;;;;;;3.03;2.03;;;24.50;76.60;;;;;;4964183;28;20041;-82
2022/05/23 08:37:41;;;;;;;3.73;1.87;;;24.70;76.80;;;;;;4991140;28;20535;-84
2022/05/23 08:40:09;;;;;;;3.85;2.00;;;24.90;76.50;;;;;;4958535;28;20046;-82
2022/05/23 08:42:56;;;;;;;2.53;2.05;;;25.20;76.30;;;;;;4986362;28;20120;-83
2022/05/23 08:45:26;;;;;;;3.75;2.08;;;25.60;73.10;;;;;;4985567;28;20029;-83
2022/05/23 08:48:03;;;;;;;2.57;2.00;;;25.80;75.20;;;;;;4970276;28;20201;-83
2022/05/23 08:50:49;;;;;;;3.95;2.05;;;26.10;74.00;;;;;;4981630;28;20034;-85
2022/05/23 08:53:41;;;;;;;2.70;2.03;;;26.40;72.50;;;;;;4983154;28;20073;-82
2022/05/23 08:56:24;;;;;;;3.28;1.95;;;26.80;71.50;;;;;;4974951;28;20060;-83
2022/05/23 08:58:54;;;;;;;2.33;1.90;;;27.20;73.10;;;;;;4991877;28;20510;-83
2022/05/23 09:01:34;;;;;;;3.30;2.00;;;27.70;75.50;;;;;;4998374;28;20175;-83
2022/05/23 09:04:16;;;;;;;3.08;2.08;;;28.20;74.80;;;;;;4993894;28;20056;-83
2022/05/23 09:06:48;;;;;;;2.20;1.60;;;28.70;72.60;;;;;;4973850;28;20039;-83
2022/05/23 09:09:17;;;;;;;2.17;1.65;;;29.30;73.10;;;;;;5001218;28;20391;-82
2022/05/23 09:11:56;;;;;;;2.03;1.83;;;29.70;74.00;;;;;;4988599;28;20406;-82
2022/05/23 09:14:22;;;;;;;2.10;1.90;;;30.20;73.00;;;;;;4996784;28;20041;-82
2022/05/23 09:16:54;;;;;;;2.83;1.80;;;30.70;72.80;;;;;;5010415;28;20326;-82
2022/05/23 09:19:38;;;;;;;2.28;1.90;;;31.10;72.10;;;;;;5000185;28;20082;-83
2022/05/23 09:22:18;;;;;;;3.40;1.97;;;31.50;66.90;;;;;;5006628;28;20270;-82
2022/05/23 09:25:00;;;;;;;1.77;1.60;;;31.80;64.90;;;;;;4995014;28;20034;-82
2022/05/23 09:28:11;;;;;;;1.98;1.50;;;32.20;65.10;;;;;;4958689;28;20220;-81
2022/05/23 09:30:39;;;;;;;1.77;1.67;;;32.50;64.00;;;;;;4969506;28;20427;-82
2022/05/23 09:33:14;;;;;;;2.63;1.90;;;32.80;64.60;;;;;;4969957;28;20053;-82
2022/05/23 09:35:42;;;;;;;2.13;1.40;;;32.90;60.30;;;;;;4993704;28;20156;-82
2022/05/23 09:38:31;;;;;;;1.67;1.55;;;32.90;61.20;;;;;;4992344;28;20045;-82
2022/05/23 09:40:57;;;;;;;1.65;1.42;;;32.90;57.00;;;;;;4987498;28;20026;-82
2022/05/23 09:49:21;;;;;;;1.75;1.30;;;32.50;55.20;;;;;;4992317;28;20030;-82
2022/05/23 09:51:59;;;;;;;1.38;1.13;;;32.30;55.90;;;;;;4984156;28;20585;-82
2022/05/23 09:54:27;;;;;;;1.70;1.30;;;32.00;55.30;;;;;;5015830;28;20136;-82
2022/05/23 09:56:54;;;;;;;2.30;1.25;;;31.80;56.50;;;;;;4997239;28;20072;-82
2022/05/23 09:59:31;;;;;;;3.13;1.30;;;31.40;55.90;;;;;;4982143;28;20140;-82
2022/05/23 10:02:01;;;;;;;1.92;1.30;;;31.10;55.90;;;;;;5005584;28;20613;-82
2022/05/23 10:04:30;;;;;;;1.98;1.30;;;30.70;55.90;;;;;;4986749;28;20261;-82
2022/05/23 10:06:56;;;;;;;1.80;1.30;;;30.40;55.00;;;;;;4996714;28;20334;-82
2022/05/23 10:09:37;;;;;;;1.27;1.17;;;30.10;55.90;;;;;;5003883;28;20297;-82
2022/05/23 10:12:09;;;;;;;1.37;1.10;;;29.90;54.40;;;;;;5011833;28;20037;-82
2022/05/23 10:15:00;;;;;;;1.27;1.10;;;29.60;55.20;;;;;;5003382;28;20050;-82
2022/05/23 10:17:28;;;;;;;1.48;1.35;;;29.40;54.40;;;;;;4987922;28;21200;-82
2022/05/23 10:20:13;;;;;;;1.60;1.08;;;29.20;56.30;;;;;;5005490;28;20029;-82
2022/05/23 10:23:15;;;;;;;2.15;1.40;;;28.90;57.30;;;;;;5017833;28;20037;-83
2022/05/23 10:25:56;;;;;;;1.63;1.10;;;28.70;55.10;;;;;;4975676;28;20115;-84
2022/05/23 10:28:34;;;;;;;2.10;1.20;;;28.50;55.50;;;;;;4981136;28;20259;-84
2022/05/23 10:31:13;;;;;;;1.27;1.17;;;28.30;55.40;;;;;;5001595;28;20041;-81
2022/05/23 10:33:41;;;;;;;1.20;1.10;;;28.10;56.00;;;;;;4990914;28;20037;-83
2022/05/23 10:36:14;;;;;;;2.42;1.33;;;27.90;56.80;;;;;;5008888;28;20029;-82
2022/05/23 10:44:57;;;;;;;1.70;1.10;;;27.70;56.80;;;;;;4999128;28;20339;-82
2022/05/23 10:47:41;;;;;;;3.15;1.38;;;27.70;56.80;;;;;;4990686;28;20230;-82
2022/05/23 10:50:34;;;;;;;2.13;1.30;;;27.70;57.30;;;;;;5000411;28;20198;-82
2022/05/23 10:53:02;;;;;;;1.77;1.20;;;27.70;57.70;;;;;;4983832;28;20041;-82
2022/05/23 10:55:28;;;;;;;3.15;1.50;;;27.60;58.50;;;;;;5005755;28;20436;-82
2022/05/23 10:58:28;;;;;;;1.85;1.40;;;27.60;58.40;;;;;;5017108;28;20389;-82
2022/05/23 11:01:18;;;;;;;2.20;1.20;;;27.60;56.80;;;;;;4993782;28;20053;-82
2022/05/23 11:04:02;;;;;;;1.60;1.30;;;27.50;57.40;;;;;;4994632;28;20542;-82
2022/05/23 11:06:42;;;;;;;2.55;1.20;;;27.50;58.00;;;;;;5004816;28;20365;-82
2022/05/23 11:09:22;;;;;;;1.45;1.20;;;27.50;57.90;;;;;;5002397;28;20041;-81
2022/05/23 11:12:49;;;;;;;1.75;1.13;;;27.40;57.80;;;;;;5013110;28;20053;-82
2022/05/23 11:15:39;;;;;;;1.17;1.07;;;27.50;58.70;;;;;;4933291;28;20441;-82
2022/05/23 11:18:20;;;;;;;1.73;1.42;;;27.50;58.60;;;;;;4989078;28;20512;-82
2022/05/23 11:20:49;;;;;;;1.38;1.20;;;27.70;59.20;;;;;;5004889;28;20136;-82
2022/05/23 11:23:26;;;;;;;2.75;1.20;;;27.80;60.20;;;;;;5009835;28;20159;-83
2022/05/23 11:26:00;;;;;;;1.60;1.23;;;28.00;59.50;;;;;;4990791;28;20287;-84
2022/05/23 11:34:41;;;;;;;1.52;1.20;;;28.50;59.10;;;;;;5009325;28;20136;-84
2022/05/23 11:39:56;;;;;;;1.50;1.35;;;28.40;57.50;;;;;;5007337;28;20033;-82
2022/05/23 11:42:35;;;;;;;1.73;1.23;;;28.20;56.60;;;;;;5030456;28;20230;-82
2022/05/23 11:47:55;;;;;;;1.88;1.13;;;27.70;56.50;;;;;;5006392;28;20470;-83
2022/05/23 11:50:29;;;;;;;2.08;1.30;;;27.50;57.30;;;;;;5006640;28;20034;-82
2022/05/23 11:53:03;;;;;;;2.72;1.17;;;27.20;57.50;;;;;;4987777;28;20041;-84
2022/05/23 11:55:50;;;;;;;2.53;1.20;;;26.90;57.30;;;;;;5012778;28;20096;-82
2022/05/23 11:58:22;;;;;;;2.95;1.40;;;26.60;58.10;;;;;;4998708;28;20041;-82
2022/05/23 12:01:14;;;;;;;1.48;1.30;;;26.40;58.20;;;;;;4995976;28;20425;-82
2022/05/23 12:03:52;;;;;;;2.97;1.40;;;26.20;59.20;;;;;;5016003;28;20033;-82
2022/05/23 12:06:23;;;;;;;1.90;1.38;;;26.00;59.90;;;;;;4993924;28;20041;-81
2022/05/23 12:09:16;;;;;;;2.10;1.40;;;25.80;59.80;;;;;;4982453;28;20040;-82
2022/05/23 12:12:34;;;;;;;3.10;1.50;;;25.60;60.80;;;;;;5004233;28;20043;-83
2022/05/23 12:15:00;;;;;;;2.35;1.48;;;25.30;62.00;;;;;;4960257;28;20029;-84
2022/05/23 12:17:29;;;;;;;5.40;1.77;;;25.00;61.00;;;;;;4983587;28;20038;-83
2022/05/23 12:19:57;;;;;;;2.22;1.40;;;24.70;62.30;;;;;;5001913;28;20145;-83
2022/05/23 12:22:38;;;;;;;2.75;1.60;;;24.50;63.10;;;;;;5012295;28;20265;-83
2022/05/23 12:25:09;;;;;;;3.28;1.50;;;24.20;65.30;;;;;;4994420;28;20573;-84
2022/05/23 12:27:44;;;;;;;2.95;1.40;;;24.00;65.50;;;;;;5017833;28;20370;-84
2022/05/23 12:30:20;;;;;;;3.03;1.60;;;23.80;66.60;;;;;;4992747;28;20505;-83
2022/05/23 12:33:19;;;;;;;2.45;1.60;;;23.70;67.50;;;;;;4984775;28;20029;-83
2022/05/23 12:36:10;;;;;;;3.30;1.55;;;23.60;69.00;;;;;;4993525;28;20076;-84
2022/05/23 12:38:56;;;;;;;4.70;1.52;;;23.50;69.80;;;;;;4987462;28;20124;-83
2022/05/23 12:41:43;;;;;;;3.45;1.55;;;23.40;70.20;;;;;;4979991;28;20565;-84
2022/05/23 12:44:51;;;;;;;3.20;1.40;;;23.40;70.50;;;;;;5017604;28;20029;-84
2022/05/23 12:47:20;;;;;;;1.70;1.35;;;23.40;71.20;;;;;;4990199;28;20604;-83
2022/05/23 12:50:01;;;;;;;3.45;1.65;;;23.30;71.10;;;;;;4985565;28;20536;-84
2022/05/23 12:53:03;;;;;;;2.60;1.58;;;23.30;71.90;;;;;;5010746;28;20195;-83
2022/05/23 12:55:48;;;;;;;2.95;1.90;;;23.20;72.80;;;;;;5007953;28;20315;-83
2022/05/23 12:58:47;;;;;;;2.73;1.80;;;23.20;73.30;;;;;;5000536;28;20045;-83
2022/05/23 13:01:21;;;;;;;2.60;1.80;;;23.20;75.10;;;;;;4988397;28;20319;-84
2022/05/23 13:04:19;;;;;;;2.05;1.70;;;23.10;75.60;;;;;;4994101;28;20161;-84
2022/05/23 13:07:00;;;;;;;2.20;1.75;;;23.10;76.30;;;;;;5004327;28;20022;-86
2022/05/23 13:09:44;;;;;;;3.97;1.92;;;23.20;76.60;;;;;;4989579;28;20056;-85
2022/05/23 13:12:16;;;;;;;4.47;2.03;;;23.20;77.10;;;;;;4986884;28;20060;-84
2022/05/23 13:15:01;;;;;;;3.85;2.13;;;23.20;77.70;;;;;;4987608;28;20121;-84
2022/05/23 13:17:35;;;;;;;3.40;2.25;;;23.20;77.60;;;;;;5010925;28;20266;-84
2022/05/23 13:22:45;;;;;;;3.28;2.20;;;23.30;78.40;;;;;;5005873;28;20116;-84
2022/05/23 13:25:10;;;;;;;2.80;2.30;;;23.40;78.60;;;;;;5009757;28;20192;-84
2022/05/23 13:27:48;;;;;;;3.75;2.28;;;23.30;78.70;;;;;;5013301;28;20037;-84
2022/05/23 13:30:17;;;;;;;3.45;2.25;;;23.40;78.50;;;;;;4988105;28;20465;-84
2022/05/23 13:32:44;;;;;;;3.75;2.60;;;23.40;78.70;;;;;;5011478;28;20445;-84
2022/05/23 13:35:28;;;;;;;4.38;2.40;;;23.30;78.80;;;;;;5012530;28;20505;-84
2022/05/23 13:37:54;;;;;;;5.67;2.60;;;23.30;78.20;;;;;;4980560;28;20624;-86
2022/05/23 13:40:29;;;;;;;5.32;2.28;;;23.30;78.80;;;;;;5001840;28;20126;-85
2022/05/23 13:43:20;;;;;;;4.47;2.53;;;23.20;78.80;;;;;;4984765;28;20034;-83
2022/05/23 13:45:59;;;;;;;3.65;2.40;;;23.20;78.80;;;;;;4995394;28;20037;-83
2022/05/23 13:48:36;;;;;;;4.57;2.40;;;23.10;79.20;;;;;;5015336;28;20190;-83
2022/05/23 13:51:07;;;;;;;4.57;2.30;;;23.00;79.30;;;;;;4992108;28;20478;-84
2022/05/23 13:53:46;;;;;;;3.90;2.50;;;22.90;79.40;;;;;;5015428;28;20424;-83
2022/05/23 13:56:13;;;;;;;3.50;2.42;;;22.90;79.70;;;;;;5006087;28;20053;-84
2022/05/23 13:58:52;;;;;;;4.10;2.70;;;22.80;80.20;;;;;;4983347;28;20081;-84
2022/05/23 14:01:22;;;;;;;5.03;3.03;;;22.70;80.40;;;;;;5002057;28;20056;-84
2022/05/23 14:04:12;;;;;;;3.47;2.67;;;22.70;81.20;;;;;;4986301;28;20040;-84
2022/05/23 14:06:49;;;;;;;4.47;2.83;;;22.70;81.10;;;;;;5000517;28;20026;-84
2022/05/23 14:09:15;;;;;;;4.45;2.88;;;22.70;81.10;;;;;;4964072;28;20238;-84
2022/05/23 14:11:56;;;;;;;3.40;2.38;;;22.70;82.00;;;;;;4992492;28;20030;-84
2022/05/23 14:14:34;;;;;;;4.03;2.60;;;22.70;81.70;;;;;;4994119;28;20104;-84
2022/05/23 14:17:10;;;;;;;4.40;2.90;;;22.70;82.50;;;;;;4986252;28;20399;-84